sensor_id;sensor_type;location;lat;lon;timestamp;P1;durP1;ratioP1;P2;durP2;ratioP2
19985;SDS011;10154;52.474;10.768;2024-03-23T00:53:22;22.97;;;8.10;;
19985;SDS011;10154;52.474;10.768;2024-03-23T00:55:48;17.60;;;8.27;;
19985;SDS011;10154;52.474;10.768;2024-03-23T00:58:13;17.80;;;8.47;;
19985;SDS011;10154;52.474;10.768;2024-03-23T01:00:39;19.57;;;8.20;;
19985;SDS011;10154;52.474;10.768;2024-03-23T01:03:04;17.80;;;7.50;;
19985;SDS011;10154;52.474;10.768;2024-03-23T01:05:29;18.07;;;6.50;;
19985;SDS011;10154;52.474;10.768;2024-03-23T01:07:55;16.87;;;6.67;;
19985;SDS011;10154;52.474;10.768;2024-03-23T01:10:20;17.03;;;6.70;;
19985;SDS011;10154;52.474;10.768;2024-03-23T01:12:45;19.53;;;7.27;;
19985;SDS011;10154;52.474;10.768;2024-03-23T01:15:11;15.77;;;7.47;;
19985;SDS011;10154;52.474;10.768;2024-03-23T01:17:36;18.63;;;5.90;;
19985;SDS011;10154;52.474;10.768;2024-03-23T01:20:01;11.97;;;5.33;;
19985;SDS011;10154;52.474;10.768;2024-03-23T01:22:27;16.53;;;4.93;;
19985;SDS011;10154;52.474;10.768;2024-03-23T01:24:53;14.57;;;4.97;;
19985;SDS011;10154;52.474;10.768;2024-03-23T01:27:18;17.03;;;5.70;;
19985;SDS011;10154;52.474;10.768;2024-03-23T01:29:43;13.93;;;5.50;;
19985;SDS011;10154;52.474;10.768;2024-03-23T01:32:09;16.83;;;5.77;;
19985;SDS011;10154;52.474;10.768;2024-03-23T01:34:34;19.70;;;5.60;;
19985;SDS011;10154;52.474;10.768;2024-03-23T01:36:59;17.33;;;6.07;;
19985;SDS011;10154;52.474;10.768;2024-03-23T01:39:25;14.83;;;5.53;;
19985;SDS011;10154;52.474;10.768;2024-03-23T01:41:51;19.50;;;5.50;;
19985;SDS011;10154;52.474;10.768;2024-03-23T01:44:16;14.00;;;4.80;;
19985;SDS011;10154;52.474;10.768;2024-03-23T01:46:42;13.80;;;4.70;;
19985;SDS011;10154;52.474;10.768;2024-03-23T01:49:08;11.43;;;5.00;;
19985;SDS011;10154;52.474;10.768;2024-03-23T01:51:34;11.03;;;4.83;;
19985;SDS011;10154;52.474;10.768;2024-03-23T01:54:03;11.47;;;4.17;;
19985;SDS011;10154;52.474;10.768;2024-03-23T01:56:32;15.67;;;3.90;;
19985;SDS011;10154;52.474;10.768;2024-03-23T01:59:00;14.33;;;4.07;;
19985;SDS011;10154;52.474;10.768;2024-03-23T02:01:25;11.00;;;2.90;;
19985;SDS011;10154;52.474;10.768;2024-03-23T02:03:51;9.87;;;2.90;;
19985;SDS011;10154;52.474;10.768;2024-03-23T02:06:16;13.73;;;3.10;;
19985;SDS011;10154;52.474;10.768;2024-03-23T02:08:41;13.37;;;3.33;;
19985;SDS011;10154;52.474;10.768;2024-03-23T02:11:08;12.90;;;3.47;;
19985;SDS011;10154;52.474;10.768;2024-03-23T02:13:33;16.20;;;3.37;;
19985;SDS011;10154;52.474;10.768;2024-03-23T02:15:58;13.30;;;3.53;;
19985;SDS011;10154;52.474;10.768;2024-03-23T02:18:24;14.90;;;3.00;;
19985;SDS011;10154;52.474;10.768;2024-03-23T02:20:49;11.40;;;3.37;;
19985;SDS011;10154;52.474;10.768;2024-03-23T02:23:15;12.10;;;3.20;;
19985;SDS011;10154;52.474;10.768;2024-03-23T02:25:41;12.13;;;2.90;;
19985;SDS011;10154;52.474;10.768;2024-03-23T02:28:06;17.43;;;3.33;;
19985;SDS011;10154;52.474;10.768;2024-03-23T02:30:32;10.47;;;3.00;;
19985;SDS011;10154;52.474;10.768;2024-03-23T02:32:57;10.70;;;3.27;;
19985;SDS011;10154;52.474;10.768;2024-03-23T02:35:22;11.63;;;3.47;;
19985;SDS011;10154;52.474;10.768;2024-03-23T02:37:47;8.90;;;3.27;;
19985;SDS011;10154;52.474;10.768;2024-03-23T02:40:16;15.87;;;3.57;;
19985;SDS011;10154;52.474;10.768;2024-03-23T02:42:41;8.57;;;3.90;;
19985;SDS011;10154;52.474;10.768;2024-03-23T02:45:07;17.37;;;3.67;;
19985;SDS011;10154;52.474;10.768;2024-03-23T02:47:32;12.43;;;3.60;;
19985;SDS011;10154;52.474;10.768;2024-03-23T02:49:58;10.17;;;3.57;;
19985;SDS011;10154;52.474;10.768;2024-03-23T02:52:23;9.60;;;3.53;;
19985;SDS011;10154;52.474;10.768;2024-03-23T02:54:48;10.00;;;3.10;;
19985;SDS011;10154;52.474;10.768;2024-03-23T02:57:14;15.00;;;3.27;;
19985;SDS011;10154;52.474;10.768;2024-03-23T02:59:39;13.47;;;3.33;;
19985;SDS011;10154;52.474;10.768;2024-03-23T03:02:05;14.30;;;3.03;;
19985;SDS011;10154;52.474;10.768;2024-03-23T03:04:30;10.60;;;3.00;;
19985;SDS011;10154;52.474;10.768;2024-03-23T03:06:56;8.30;;;3.10;;
19985;SDS011;10154;52.474;10.768;2024-03-23T03:09:21;9.33;;;3.40;;
19985;SDS011;10154;52.474;10.768;2024-03-23T03:11:47;10.70;;;3.20;;
19985;SDS011;10154;52.474;10.768;2024-03-23T03:14:12;12.57;;;3.00;;
19985;SDS011;10154;52.474;10.768;2024-03-23T03:16:37;6.23;;;2.47;;
19985;SDS011;10154;52.474;10.768;2024-03-23T03:19:03;10.13;;;2.80;;
19985;SDS011;10154;52.474;10.768;2024-03-23T03:21:28;8.80;;;2.90;;
19985;SDS011;10154;52.474;10.768;2024-03-23T03:23:54;12.97;;;2.90;;
19985;SDS011;10154;52.474;10.768;2024-03-23T03:26:21;9.30;;;2.90;;
19985;SDS011;10154;52.474;10.768;2024-03-23T03:28:47;9.13;;;2.93;;
19985;SDS011;10154;52.474;10.768;2024-03-23T03:31:14;11.90;;;3.10;;
19985;SDS011;10154;52.474;10.768;2024-03-23T03:33:40;16.70;;;3.80;;
19985;SDS011;10154;52.474;10.768;2024-03-23T03:36:06;12.07;;;3.43;;
19985;SDS011;10154;52.474;10.768;2024-03-23T03:38:31;11.70;;;2.97;;
19985;SDS011;10154;52.474;10.768;2024-03-23T03:40:56;13.77;;;3.80;;
19985;SDS011;10154;52.474;10.768;2024-03-23T03:43:23;11.57;;;3.10;;
19985;SDS011;10154;52.474;10.768;2024-03-23T03:45:52;10.93;;;3.47;;
19985;SDS011;10154;52.474;10.768;2024-03-23T03:48:22;12.47;;;3.07;;
19985;SDS011;10154;52.474;10.768;2024-03-23T03:50:47;11.73;;;3.20;;
19985;SDS011;10154;52.474;10.768;2024-03-23T03:53:13;9.97;;;2.87;;
19985;SDS011;10154;52.474;10.768;2024-03-23T03:55:38;11.23;;;3.17;;
19985;SDS011;10154;52.474;10.768;2024-03-23T03:58:03;12.23;;;3.70;;
19985;SDS011;10154;52.474;10.768;2024-03-23T04:00:29;12.67;;;3.27;;
19985;SDS011;10154;52.474;10.768;2024-03-23T04:02:55;10.53;;;3.50;;
19985;SDS011;10154;52.474;10.768;2024-03-23T04:05:20;12.73;;;4.23;;
19985;SDS011;10154;52.474;10.768;2024-03-23T04:07:46;17.33;;;3.87;;
19985;SDS011;10154;52.474;10.768;2024-03-23T04:10:11;11.83;;;3.73;;
19985;SDS011;10154;52.474;10.768;2024-03-23T04:12:37;15.00;;;4.40;;
19985;SDS011;10154;52.474;10.768;2024-03-23T04:15:02;9.63;;;3.70;;
19985;SDS011;10154;52.474;10.768;2024-03-23T04:17:29;13.83;;;4.77;;
19985;SDS011;10154;52.474;10.768;2024-03-23T04:19:57;17.53;;;4.57;;
19985;SDS011;10154;52.474;10.768;2024-03-23T04:22:23;13.17;;;4.80;;
19985;SDS011;10154;52.474;10.768;2024-03-23T04:24:53;10.53;;;4.13;;
19985;SDS011;10154;52.474;10.768;2024-03-23T04:27:18;15.97;;;4.63;;
19985;SDS011;10154;52.474;10.768;2024-03-23T04:29:46;15.20;;;4.83;;
19985;SDS011;10154;52.474;10.768;2024-03-23T04:32:15;16.30;;;4.87;;
19985;SDS011;10154;52.474;10.768;2024-03-23T04:34:41;14.33;;;4.80;;
19985;SDS011;10154;52.474;10.768;2024-03-23T04:37:06;14.23;;;4.47;;
19985;SDS011;10154;52.474;10.768;2024-03-23T04:39:32;14.47;;;4.43;;
19985;SDS011;10154;52.474;10.768;2024-03-23T04:41:58;11.23;;;4.00;;
19985;SDS011;10154;52.474;10.768;2024-03-23T04:44:23;20.33;;;4.73;;
19985;SDS011;10154;52.474;10.768;2024-03-23T04:46:48;11.63;;;5.00;;
19985;SDS011;10154;52.474;10.768;2024-03-23T04:49:14;17.53;;;5.30;;
19985;SDS011;10154;52.474;10.768;2024-03-23T04:51:39;17.80;;;5.17;;
19985;SDS011;10154;52.474;10.768;2024-03-23T04:54:06;13.20;;;5.10;;
19985;SDS011;10154;52.474;10.768;2024-03-23T04:56:32;15.23;;;4.97;;
19985;SDS011;10154;52.474;10.768;2024-03-23T04:58:58;15.20;;;5.00;;
19985;SDS011;10154;52.474;10.768;2024-03-23T05:01:26;16.30;;;5.40;;
19985;SDS011;10154;52.474;10.768;2024-03-23T05:03:52;15.47;;;4.73;;
19985;SDS011;10154;52.474;10.768;2024-03-23T05:06:17;18.80;;;5.40;;
19985;SDS011;10154;52.474;10.768;2024-03-23T05:08:43;15.30;;;4.87;;
19985;SDS011;10154;52.474;10.768;2024-03-23T05:11:08;9.73;;;4.57;;
19985;SDS011;10154;52.474;10.768;2024-03-23T05:13:34;15.30;;;4.67;;
19985;SDS011;10154;52.474;10.768;2024-03-23T05:15:59;14.43;;;5.20;;
19985;SDS011;10154;52.474;10.768;2024-03-23T05:18:24;20.93;;;4.50;;
19985;SDS011;10154;52.474;10.768;2024-03-23T05:20:55;11.17;;;3.63;;
19985;SDS011;10154;52.474;10.768;2024-03-23T05:23:24;12.70;;;4.40;;
19985;SDS011;10154;52.474;10.768;2024-03-23T05:25:50;14.97;;;4.37;;
19985;SDS011;10154;52.474;10.768;2024-03-23T05:28:16;14.10;;;4.03;;
19985;SDS011;10154;52.474;10.768;2024-03-23T05:30:42;14.87;;;4.20;;
19985;SDS011;10154;52.474;10.768;2024-03-23T05:33:07;14.77;;;4.10;;
19985;SDS011;10154;52.474;10.768;2024-03-23T05:35:33;14.03;;;4.27;;
19985;SDS011;10154;52.474;10.768;2024-03-23T05:37:58;12.77;;;3.67;;
19985;SDS011;10154;52.474;10.768;2024-03-23T05:40:25;14.40;;;3.57;;
19985;SDS011;10154;52.474;10.768;2024-03-23T05:42:51;13.93;;;3.37;;
19985;SDS011;10154;52.474;10.768;2024-03-23T05:45:20;14.17;;;3.33;;
19985;SDS011;10154;52.474;10.768;2024-03-23T05:47:47;12.67;;;2.80;;
19985;SDS011;10154;52.474;10.768;2024-03-23T05:50:13;12.57;;;2.77;;
19985;SDS011;10154;52.474;10.768;2024-03-23T05:52:38;12.63;;;2.77;;
19985;SDS011;10154;52.474;10.768;2024-03-23T05:55:04;6.13;;;2.07;;
19985;SDS011;10154;52.474;10.768;2024-03-23T05:57:30;10.60;;;2.47;;
19985;SDS011;10154;52.474;10.768;2024-03-23T05:59:55;8.97;;;2.33;;
19985;SDS011;10154;52.474;10.768;2024-03-23T06:02:21;15.20;;;2.70;;
19985;SDS011;10154;52.474;10.768;2024-03-23T06:04:47;10.50;;;2.57;;
19985;SDS011;10154;52.474;10.768;2024-03-23T06:07:12;11.90;;;2.67;;
19985;SDS011;10154;52.474;10.768;2024-03-23T06:09:39;8.47;;;2.27;;
19985;SDS011;10154;52.474;10.768;2024-03-23T06:12:05;8.93;;;1.80;;
19985;SDS011;10154;52.474;10.768;2024-03-23T06:14:31;6.30;;;1.63;;
19985;SDS011;10154;52.474;10.768;2024-03-23T06:16:57;8.07;;;1.40;;
19985;SDS011;10154;52.474;10.768;2024-03-23T06:19:22;9.07;;;2.03;;
19985;SDS011;10154;52.474;10.768;2024-03-23T06:21:48;9.30;;;1.77;;
19985;SDS011;10154;52.474;10.768;2024-03-23T06:24:13;6.63;;;1.43;;
19985;SDS011;10154;52.474;10.768;2024-03-23T06:26:38;5.93;;;1.47;;
19985;SDS011;10154;52.474;10.768;2024-03-23T06:29:04;7.50;;;1.67;;
19985;SDS011;10154;52.474;10.768;2024-03-23T06:31:30;8.60;;;1.93;;
19985;SDS011;10154;52.474;10.768;2024-03-23T06:33:55;10.37;;;2.10;;
19985;SDS011;10154;52.474;10.768;2024-03-23T06:36:21;11.37;;;2.40;;
19985;SDS011;10154;52.474;10.768;2024-03-23T06:38:46;13.13;;;2.23;;
19985;SDS011;10154;52.474;10.768;2024-03-23T06:41:12;9.37;;;2.20;;
19985;SDS011;10154;52.474;10.768;2024-03-23T06:43:37;9.07;;;2.30;;
19985;SDS011;10154;52.474;10.768;2024-03-23T06:46:03;9.30;;;2.30;;
19985;SDS011;10154;52.474;10.768;2024-03-23T06:48:29;9.93;;;2.47;;
19985;SDS011;10154;52.474;10.768;2024-03-23T06:50:55;10.77;;;2.20;;
19985;SDS011;10154;52.474;10.768;2024-03-23T06:53:21;7.17;;;1.87;;
19985;SDS011;10154;52.474;10.768;2024-03-23T06:55:50;12.97;;;2.27;;
19985;SDS011;10154;52.474;10.768;2024-03-23T06:58:21;9.63;;;2.00;;
19985;SDS011;10154;52.474;10.768;2024-03-23T07:00:48;10.50;;;2.50;;
19985;SDS011;10154;52.474;10.768;2024-03-23T07:03:14;9.60;;;2.30;;
19985;SDS011;10154;52.474;10.768;2024-03-23T07:05:39;8.43;;;1.90;;
19985;SDS011;10154;52.474;10.768;2024-03-23T07:08:05;12.53;;;2.50;;
19985;SDS011;10154;52.474;10.768;2024-03-23T07:10:30;12.90;;;2.70;;
19985;SDS011;10154;52.474;10.768;2024-03-23T07:12:56;12.03;;;2.10;;
19985;SDS011;10154;52.474;10.768;2024-03-23T07:15:21;11.47;;;2.20;;
19985;SDS011;10154;52.474;10.768;2024-03-23T07:17:47;8.93;;;2.10;;
19985;SDS011;10154;52.474;10.768;2024-03-23T07:20:12;13.47;;;2.30;;
19985;SDS011;10154;52.474;10.768;2024-03-23T07:22:38;11.10;;;2.30;;
19985;SDS011;10154;52.474;10.768;2024-03-23T07:25:04;7.23;;;1.90;;
19985;SDS011;10154;52.474;10.768;2024-03-23T07:27:30;10.20;;;2.20;;
19985;SDS011;10154;52.474;10.768;2024-03-23T07:29:55;13.73;;;2.30;;
19985;SDS011;10154;52.474;10.768;2024-03-23T07:32:21;7.00;;;2.03;;
19985;SDS011;10154;52.474;10.768;2024-03-23T07:34:46;10.40;;;2.20;;
19985;SDS011;10154;52.474;10.768;2024-03-23T07:37:11;9.20;;;1.90;;
19985;SDS011;10154;52.474;10.768;2024-03-23T07:39:37;10.57;;;1.90;;
19985;SDS011;10154;52.474;10.768;2024-03-23T07:42:02;9.93;;;1.93;;
19985;SDS011;10154;52.474;10.768;2024-03-23T07:44:28;9.57;;;1.93;;
19985;SDS011;10154;52.474;10.768;2024-03-23T07:46:54;11.03;;;2.03;;
19985;SDS011;10154;52.474;10.768;2024-03-23T07:49:19;7.97;;;1.70;;
19985;SDS011;10154;52.474;10.768;2024-03-23T07:51:44;15.57;;;2.20;;
19985;SDS011;10154;52.474;10.768;2024-03-23T07:54:10;7.53;;;2.00;;
19985;SDS011;10154;52.474;10.768;2024-03-23T07:56:35;8.87;;;1.73;;
19985;SDS011;10154;52.474;10.768;2024-03-23T07:59:01;6.63;;;1.90;;
19985;SDS011;10154;52.474;10.768;2024-03-23T08:01:28;12.33;;;2.17;;
19985;SDS011;10154;52.474;10.768;2024-03-23T08:03:53;9.87;;;2.00;;
19985;SDS011;10154;52.474;10.768;2024-03-23T08:06:19;8.73;;;1.60;;
19985;SDS011;10154;52.474;10.768;2024-03-23T08:08:46;7.57;;;1.87;;
19985;SDS011;10154;52.474;10.768;2024-03-23T08:11:12;7.20;;;1.80;;
19985;SDS011;10154;52.474;10.768;2024-03-23T08:13:39;6.43;;;1.70;;
19985;SDS011;10154;52.474;10.768;2024-03-23T08:16:05;7.53;;;1.67;;
19985;SDS011;10154;52.474;10.768;2024-03-23T08:18:30;9.07;;;2.20;;
19985;SDS011;10154;52.474;10.768;2024-03-23T08:21:02;8.93;;;2.00;;
19985;SDS011;10154;52.474;10.768;2024-03-23T08:23:29;9.07;;;1.90;;
19985;SDS011;10154;52.474;10.768;2024-03-23T08:25:59;8.50;;;1.70;;
19985;SDS011;10154;52.474;10.768;2024-03-23T08:28:25;7.60;;;1.80;;
19985;SDS011;10154;52.474;10.768;2024-03-23T08:30:51;7.53;;;1.60;;
19985;SDS011;10154;52.474;10.768;2024-03-23T08:33:20;11.90;;;1.70;;
19985;SDS011;10154;52.474;10.768;2024-03-23T08:35:55;11.87;;;1.83;;
19985;SDS011;10154;52.474;10.768;2024-03-23T08:38:24;9.13;;;2.03;;
19985;SDS011;10154;52.474;10.768;2024-03-23T08:41:00;7.27;;;1.93;;
19985;SDS011;10154;52.474;10.768;2024-03-23T08:43:27;13.30;;;1.80;;
19985;SDS011;10154;52.474;10.768;2024-03-23T08:45:53;8.67;;;1.60;;
19985;SDS011;10154;52.474;10.768;2024-03-23T08:48:19;9.07;;;1.70;;
19985;SDS011;10154;52.474;10.768;2024-03-23T08:50:58;6.17;;;1.43;;
19985;SDS011;10154;52.474;10.768;2024-03-23T08:53:31;9.43;;;2.20;;
19985;SDS011;10154;52.474;10.768;2024-03-23T08:55:56;10.67;;;1.60;;
19985;SDS011;10154;52.474;10.768;2024-03-23T08:58:23;8.17;;;1.70;;
19985;SDS011;10154;52.474;10.768;2024-03-23T09:00:49;6.37;;;1.37;;
19985;SDS011;10154;52.474;10.768;2024-03-23T09:03:15;7.53;;;1.50;;
19985;SDS011;10154;52.474;10.768;2024-03-23T09:05:40;5.90;;;1.40;;
19985;SDS011;10154;52.474;10.768;2024-03-23T09:08:06;7.07;;;1.40;;
19985;SDS011;10154;52.474;10.768;2024-03-23T09:10:31;9.47;;;1.80;;
19985;SDS011;10154;52.474;10.768;2024-03-23T09:12:59;10.73;;;1.80;;
19985;SDS011;10154;52.474;10.768;2024-03-23T09:15:25;6.70;;;1.70;;
19985;SDS011;10154;52.474;10.768;2024-03-23T09:17:50;8.33;;;1.60;;
19985;SDS011;10154;52.474;10.768;2024-03-23T09:20:15;11.77;;;1.90;;
19985;SDS011;10154;52.474;10.768;2024-03-23T09:22:41;9.93;;;2.00;;
19985;SDS011;10154;52.474;10.768;2024-03-23T09:25:06;14.07;;;2.47;;
19985;SDS011;10154;52.474;10.768;2024-03-23T09:27:32;10.03;;;1.80;;
19985;SDS011;10154;52.474;10.768;2024-03-23T09:29:57;11.33;;;2.20;;
19985;SDS011;10154;52.474;10.768;2024-03-23T09:32:22;13.33;;;2.40;;
19985;SDS011;10154;52.474;10.768;2024-03-23T09:34:48;15.10;;;2.63;;
19985;SDS011;10154;52.474;10.768;2024-03-23T09:37:13;11.60;;;2.73;;
19985;SDS011;10154;52.474;10.768;2024-03-23T09:39:38;16.73;;;2.27;;
19985;SDS011;10154;52.474;10.768;2024-03-23T09:42:04;11.00;;;2.87;;
19985;SDS011;10154;52.474;10.768;2024-03-23T09:44:29;14.17;;;2.70;;
19985;SDS011;10154;52.474;10.768;2024-03-23T09:46:55;19.00;;;3.40;;
19985;SDS011;10154;52.474;10.768;2024-03-23T09:49:21;20.50;;;3.03;;
19985;SDS011;10154;52.474;10.768;2024-03-23T09:51:46;15.93;;;3.77;;
19985;SDS011;10154;52.474;10.768;2024-03-23T09:54:11;13.43;;;3.10;;
19985;SDS011;10154;52.474;10.768;2024-03-23T09:56:37;11.57;;;2.77;;
19985;SDS011;10154;52.474;10.768;2024-03-23T09:59:02;11.93;;;2.77;;
19985;SDS011;10154;52.474;10.768;2024-03-23T10:01:31;16.73;;;3.30;;
19985;SDS011;10154;52.474;10.768;2024-03-23T10:03:56;13.87;;;3.00;;
19985;SDS011;10154;52.474;10.768;2024-03-23T10:06:22;12.70;;;3.07;;
19985;SDS011;10154;52.474;10.768;2024-03-23T10:08:49;12.97;;;2.73;;
19985;SDS011;10154;52.474;10.768;2024-03-23T10:11:15;15.47;;;3.20;;
19985;SDS011;10154;52.474;10.768;2024-03-23T10:13:42;14.37;;;2.90;;
19985;SDS011;10154;52.474;10.768;2024-03-23T10:16:08;13.37;;;3.00;;
19985;SDS011;10154;52.474;10.768;2024-03-23T10:18:38;15.50;;;3.10;;
19985;SDS011;10154;52.474;10.768;2024-03-23T10:21:07;17.73;;;3.03;;
19985;SDS011;10154;52.474;10.768;2024-03-23T10:23:36;16.70;;;3.10;;
19985;SDS011;10154;52.474;10.768;2024-03-23T10:26:21;17.97;;;3.80;;
19985;SDS011;10154;52.474;10.768;2024-03-23T10:31:19;12.00;;;2.53;;
19985;SDS011;10154;52.474;10.768;2024-03-23T10:33:48;19.73;;;3.23;;
19985;SDS011;10154;52.474;10.768;2024-03-23T10:36:14;16.50;;;3.30;;
19985;SDS011;10154;52.474;10.768;2024-03-23T10:38:40;11.03;;;2.63;;
19985;SDS011;10154;52.474;10.768;2024-03-23T10:41:07;16.40;;;2.77;;
19985;SDS011;10154;52.474;10.768;2024-03-23T10:43:34;13.57;;;2.20;;
19985;SDS011;10154;52.474;10.768;2024-03-23T10:46:00;10.60;;;2.43;;
19985;SDS011;10154;52.474;10.768;2024-03-23T10:48:25;10.30;;;1.87;;
19985;SDS011;10154;52.474;10.768;2024-03-23T10:50:50;17.53;;;2.60;;
19985;SDS011;10154;52.474;10.768;2024-03-23T10:53:16;7.07;;;1.80;;
19985;SDS011;10154;52.474;10.768;2024-03-23T10:55:42;11.53;;;2.37;;
19985;SDS011;10154;52.474;10.768;2024-03-23T10:58:08;11.73;;;2.17;;
19985;SDS011;10154;52.474;10.768;2024-03-23T11:00:37;8.73;;;2.07;;
19985;SDS011;10154;52.474;10.768;2024-03-23T11:06:04;9.98;;;1.48;;
19985;SDS011;10154;52.474;10.768;2024-03-23T11:08:34;9.20;;;2.37;;
19985;SDS011;10154;52.474;10.768;2024-03-23T11:13:52;7.45;;;2.08;;
19985;SDS011;10154;52.474;10.768;2024-03-23T11:16:24;6.93;;;1.40;;
19985;SDS011;10154;52.474;10.768;2024-03-23T11:19:33;6.32;;;1.65;;
19985;SDS011;10154;52.474;10.768;2024-03-23T11:22:02;4.72;;;1.38;;
19985;SDS011;10154;52.474;10.768;2024-03-23T11:24:28;12.90;;;2.43;;
19985;SDS011;10154;52.474;10.768;2024-03-23T11:26:54;15.53;;;3.00;;
19985;SDS011;10154;52.474;10.768;2024-03-23T11:29:19;12.20;;;2.60;;
19985;SDS011;10154;52.474;10.768;2024-03-23T11:31:48;8.30;;;2.43;;
19985;SDS011;10154;52.474;10.768;2024-03-23T11:34:15;12.67;;;2.60;;
19985;SDS011;10154;52.474;10.768;2024-03-23T11:36:40;9.30;;;2.90;;
19985;SDS011;10154;52.474;10.768;2024-03-23T11:39:16;6.87;;;1.83;;
19985;SDS011;10154;52.474;10.768;2024-03-23T11:41:48;7.23;;;1.80;;
19985;SDS011;10154;52.474;10.768;2024-03-23T11:44:17;7.13;;;1.90;;
19985;SDS011;10154;52.474;10.768;2024-03-23T11:46:43;8.13;;;1.70;;
19985;SDS011;10154;52.474;10.768;2024-03-23T11:49:24;9.03;;;2.30;;
19985;SDS011;10154;52.474;10.768;2024-03-23T11:51:51;14.10;;;2.43;;
19985;SDS011;10154;52.474;10.768;2024-03-23T11:54:22;10.13;;;2.13;;
19985;SDS011;10154;52.474;10.768;2024-03-23T11:56:58;8.97;;;2.63;;
19985;SDS011;10154;52.474;10.768;2024-03-23T11:59:35;5.53;;;1.63;;
19985;SDS011;10154;52.474;10.768;2024-03-23T12:02:08;4.53;;;1.37;;
19985;SDS011;10154;52.474;10.768;2024-03-23T12:04:38;4.23;;;0.90;;
19985;SDS011;10154;52.474;10.768;2024-03-23T12:07:11;3.87;;;1.40;;
19985;SDS011;10154;52.474;10.768;2024-03-23T12:09:39;6.60;;;1.37;;
19985;SDS011;10154;52.474;10.768;2024-03-23T12:12:09;6.23;;;1.37;;
19985;SDS011;10154;52.474;10.768;2024-03-23T12:14:44;2.03;;;1.07;;
19985;SDS011;10154;52.474;10.768;2024-03-23T12:17:14;2.97;;;1.07;;
19985;SDS011;10154;52.474;10.768;2024-03-23T12:19:41;8.03;;;1.30;;
19985;SDS011;10154;52.474;10.768;2024-03-23T12:22:07;4.97;;;0.90;;
19985;SDS011;10154;52.474;10.768;2024-03-23T12:24:33;6.03;;;1.40;;
19985;SDS011;10154;52.474;10.768;2024-03-23T12:27:02;5.23;;;1.03;;
19985;SDS011;10154;52.474;10.768;2024-03-23T12:29:30;2.97;;;0.90;;
19985;SDS011;10154;52.474;10.768;2024-03-23T12:31:59;3.70;;;0.93;;
19985;SDS011;10154;52.474;10.768;2024-03-23T12:34:25;5.40;;;1.70;;
19985;SDS011;10154;52.474;10.768;2024-03-23T12:36:51;3.43;;;0.93;;
19985;SDS011;10154;52.474;10.768;2024-03-23T12:39:16;3.10;;;1.10;;
19985;SDS011;10154;52.474;10.768;2024-03-23T12:41:41;4.23;;;1.13;;
19985;SDS011;10154;52.474;10.768;2024-03-23T12:44:06;3.30;;;1.20;;
19985;SDS011;10154;52.474;10.768;2024-03-23T12:46:34;3.33;;;1.50;;
19985;SDS011;10154;52.474;10.768;2024-03-23T12:48:59;3.77;;;1.10;;
19985;SDS011;10154;52.474;10.768;2024-03-23T12:51:25;3.30;;;1.33;;
19985;SDS011;10154;52.474;10.768;2024-03-23T12:53:50;3.77;;;1.33;;
19985;SDS011;10154;52.474;10.768;2024-03-23T12:56:16;3.93;;;1.13;;
19985;SDS011;10154;52.474;10.768;2024-03-23T12:58:41;3.50;;;0.73;;
19985;SDS011;10154;52.474;10.768;2024-03-23T13:01:06;0.80;;;0.80;;
19985;SDS011;10154;52.474;10.768;2024-03-23T13:03:32;2.80;;;1.00;;
19985;SDS011;10154;52.474;10.768;2024-03-23T13:05:57;5.40;;;1.00;;
19985;SDS011;10154;52.474;10.768;2024-03-23T13:08:22;2.70;;;0.80;;
19985;SDS011;10154;52.474;10.768;2024-03-23T13:10:51;3.07;;;1.40;;
19985;SDS011;10154;52.474;10.768;2024-03-23T13:13:17;5.33;;;1.00;;
19985;SDS011;10154;52.474;10.768;2024-03-23T13:15:42;1.93;;;1.03;;
19985;SDS011;10154;52.474;10.768;2024-03-23T13:18:07;3.40;;;1.57;;
19985;SDS011;10154;52.474;10.768;2024-03-23T13:20:35;4.13;;;1.57;;
19985;SDS011;10154;52.474;10.768;2024-03-23T13:23:00;9.17;;;3.60;;
19985;SDS011;10154;52.474;10.768;2024-03-23T13:25:26;12.20;;;3.10;;
19985;SDS011;10154;52.474;10.768;2024-03-23T13:27:51;9.80;;;2.50;;
19985;SDS011;10154;52.474;10.768;2024-03-23T13:30:17;12.33;;;3.50;;
19985;SDS011;10154;52.474;10.768;2024-03-23T13:32:42;8.80;;;3.20;;
19985;SDS011;10154;52.474;10.768;2024-03-23T13:35:07;7.20;;;2.30;;
19985;SDS011;10154;52.474;10.768;2024-03-23T13:37:32;10.87;;;3.70;;
19985;SDS011;10154;52.474;10.768;2024-03-23T13:39:58;7.83;;;2.03;;
19985;SDS011;10154;52.474;10.768;2024-03-23T13:42:24;7.23;;;2.10;;
19985;SDS011;10154;52.474;10.768;2024-03-23T13:44:51;9.60;;;3.00;;
19985;SDS011;10154;52.474;10.768;2024-03-23T13:47:16;6.30;;;2.13;;
19985;SDS011;10154;52.474;10.768;2024-03-23T13:49:42;7.30;;;2.37;;
19985;SDS011;10154;52.474;10.768;2024-03-23T13:52:07;8.73;;;2.50;;
19985;SDS011;10154;52.474;10.768;2024-03-23T13:54:33;7.73;;;2.33;;
19985;SDS011;10154;52.474;10.768;2024-03-23T13:56:58;5.83;;;2.00;;
19985;SDS011;10154;52.474;10.768;2024-03-23T13:59:23;4.70;;;1.70;;
19985;SDS011;10154;52.474;10.768;2024-03-23T14:01:49;6.90;;;1.80;;
19985;SDS011;10154;52.474;10.768;2024-03-23T14:04:15;8.83;;;2.00;;
19985;SDS011;10154;52.474;10.768;2024-03-23T14:06:47;9.90;;;3.47;;
19985;SDS011;10154;52.474;10.768;2024-03-23T14:09:13;5.43;;;2.37;;
19985;SDS011;10154;52.474;10.768;2024-03-23T14:11:39;6.07;;;2.20;;
19985;SDS011;10154;52.474;10.768;2024-03-23T14:14:07;5.13;;;2.30;;
19985;SDS011;10154;52.474;10.768;2024-03-23T14:16:33;9.20;;;2.47;;
19985;SDS011;10154;52.474;10.768;2024-03-23T14:18:58;6.90;;;1.90;;
19985;SDS011;10154;52.474;10.768;2024-03-23T14:21:23;3.90;;;1.83;;
19985;SDS011;10154;52.474;10.768;2024-03-23T14:23:49;5.03;;;1.90;;
19985;SDS011;10154;52.474;10.768;2024-03-23T14:26:15;5.60;;;1.93;;
19985;SDS011;10154;52.474;10.768;2024-03-23T14:28:40;7.93;;;2.43;;
19985;SDS011;10154;52.474;10.768;2024-03-23T14:31:06;2.77;;;1.40;;
19985;SDS011;10154;52.474;10.768;2024-03-23T14:33:35;6.17;;;2.07;;
19985;SDS011;10154;52.474;10.768;2024-03-23T14:36:02;2.77;;;1.20;;
19985;SDS011;10154;52.474;10.768;2024-03-23T14:38:28;5.23;;;1.97;;
19985;SDS011;10154;52.474;10.768;2024-03-23T14:40:57;2.33;;;1.33;;
19985;SDS011;10154;52.474;10.768;2024-03-23T14:43:23;4.90;;;1.50;;
19985;SDS011;10154;52.474;10.768;2024-03-23T14:48:33;3.20;;;1.40;;
19985;SDS011;10154;52.474;10.768;2024-03-23T14:50:59;2.40;;;1.20;;
19985;SDS011;10154;52.474;10.768;2024-03-23T14:53:25;4.23;;;1.40;;
19985;SDS011;10154;52.474;10.768;2024-03-23T14:55:54;2.00;;;0.80;;
19985;SDS011;10154;52.474;10.768;2024-03-23T14:58:20;3.47;;;1.23;;
19985;SDS011;10154;52.474;10.768;2024-03-23T15:00:45;4.27;;;1.13;;
19985;SDS011;10154;52.474;10.768;2024-03-23T15:03:11;1.77;;;1.00;;
19985;SDS011;10154;52.474;10.768;2024-03-23T15:05:36;1.90;;;1.10;;
19985;SDS011;10154;52.474;10.768;2024-03-23T15:08:02;3.73;;;1.07;;
19985;SDS011;10154;52.474;10.768;2024-03-23T15:10:28;4.70;;;1.40;;
19985;SDS011;10154;52.474;10.768;2024-03-23T15:12:53;3.07;;;1.20;;
19985;SDS011;10154;52.474;10.768;2024-03-23T15:15:19;5.37;;;1.20;;
19985;SDS011;10154;52.474;10.768;2024-03-23T15:17:44;2.60;;;1.30;;
19985;SDS011;10154;52.474;10.768;2024-03-23T15:20:10;3.13;;;1.20;;
19985;SDS011;10154;52.474;10.768;2024-03-23T15:22:38;3.50;;;1.37;;
19985;SDS011;10154;52.474;10.768;2024-03-23T15:25:04;5.90;;;1.30;;
19985;SDS011;10154;52.474;10.768;2024-03-23T15:27:29;2.60;;;1.20;;